Time;durP1;ratioP1;P1;durP2;ratioP2;P2;SDS_P1;SDS_P2;PMS_P1;PMS_P2;Temp;Humidity;BMP_temperature;BMP_pressure;BME280_temperature;BME280_humidity;BME280_pressure;Samples;Min_cycle;Max_cycle;Signal;HPM_P1;HPM_P2
2023/08/24 00:00:32;;;;;;;2.67;2.47;;;26.90;59.70;;;;;;6142182;23;20409;-73
2023/08/24 00:03:02;;;;;;;3.20;2.80;;;26.90;59.70;;;;;;6141744;23;20398;-73
2023/08/24 00:05:36;;;;;;;5.80;2.43;;;26.90;59.70;;;;;;6141888;23;20377;-73
2023/08/24 00:08:07;;;;;;;3.07;2.80;;;26.90;59.70;;;;;;6141630;23;20441;-73
2023/08/24 00:10:37;;;;;;;3.20;2.20;;;26.90;59.60;;;;;;6142192;23;20378;-74
2023/08/24 00:13:05;;;;;;;3.03;2.40;;;26.90;59.50;;;;;;6139981;23;20433;-73
2023/08/24 00:15:34;;;;;;;4.03;2.10;;;26.90;59.60;;;;;;6141878;23;20386;-73
2023/08/24 00:18:02;;;;;;;3.30;2.50;;;26.80;59.60;;;;;;6142594;23;20501;-73
2023/08/24 00:20:32;;;;;;;2.03;1.83;;;26.80;59.50;;;;;;6140859;23;20484;-73
2023/08/24 00:23:01;;;;;;;3.47;2.13;;;26.80;60.90;;;;;;6140545;23;20464;-73
2023/08/24 00:25:31;;;;;;;2.70;2.50;;;26.80;59.40;;;;;;6142361;23;20394;-73
2023/08/24 00:27:59;;;;;;;2.53;2.10;;;26.80;59.50;;;;;;6141361;23;20432;-73
2023/08/24 00:30:27;;;;;;;2.30;2.10;;;26.80;59.50;;;;;;6141646;23;20482;-73
2023/08/24 00:32:56;;;;;;;2.30;1.90;;;26.80;59.40;;;;;;6142025;23;20436;-73
2023/08/24 00:35:24;;;;;;;2.53;2.20;;;26.80;59.40;;;;;;6141564;23;20396;-72
2023/08/24 00:37:52;;;;;;;2.30;2.10;;;26.80;59.40;;;;;;6142242;23;20746;-74
2023/08/24 00:40:21;;;;;;;1.90;1.80;;;26.80;59.50;;;;;;6142333;23;20398;-73
2023/08/24 00:42:50;;;;;;;2.80;2.60;;;26.80;59.50;;;;;;6142114;23;20437;-72
2023/08/24 00:45:19;;;;;;;2.60;2.40;;;26.80;59.50;;;;;;6141439;23;20914;-73
2023/08/24 00:47:49;;;;;;;3.30;2.77;;;26.80;59.50;;;;;;6142284;23;20812;-73
2023/08/24 00:50:19;;;;;;;2.70;1.90;;;26.80;59.50;;;;;;6141317;23;20424;-73
2023/08/24 00:52:49;;;;;;;2.10;1.90;;;26.80;59.50;;;;;;6141553;23;20851;-74
2023/08/24 00:55:18;;;;;;;2.40;2.20;;;26.80;59.50;;;;;;6142621;23;20386;-73
2023/08/24 00:57:46;;;;;;;2.30;2.10;;;26.80;59.50;;;;;;6141996;23;20409;-73
2023/08/24 01:00:17;;;;;;;2.90;2.60;;;26.80;59.50;;;;;;6141754;23;20420;-73
2023/08/24 01:02:46;;;;;;;2.90;2.20;;;26.80;59.60;;;;;;6141596;23;20425;-72
2023/08/24 01:05:15;;;;;;;2.53;2.33;;;26.80;59.50;;;;;;6141192;23;20421;-73
2023/08/24 01:07:45;;;;;;;2.30;2.10;;;26.80;59.50;;;;;;6142079;23;20719;-73
2023/08/24 01:10:14;;;;;;;2.33;2.13;;;26.80;59.50;;;;;;6141474;23;20422;-73
2023/08/24 01:13:08;;;;;;;2.17;1.77;;;26.80;59.60;;;;;;6141090;23;21120;-72
2023/08/24 01:15:47;;;;;;;2.53;2.23;;;26.80;59.60;;;;;;6141996;23;20440;-74
2023/08/24 01:18:20;;;;;;;3.00;2.77;;;26.80;59.50;;;;;;6142896;23;20441;-73
2023/08/24 01:20:50;;;;;;;2.10;2.00;;;26.70;59.40;;;;;;6141363;23;20378;-73
2023/08/24 01:23:34;;;;;;;2.83;2.63;;;26.70;59.30;;;;;;6140137;23;21116;-73
2023/08/24 01:26:09;;;;;;;2.57;2.37;;;26.70;59.40;;;;;;6141739;23;20374;-73
2023/08/24 01:28:38;;;;;;;2.70;2.50;;;26.70;60.60;;;;;;6115756;23;20429;-73
2023/08/24 01:31:08;;;;;;;2.73;2.20;;;26.70;59.40;;;;;;6141980;23;20421;-73
2023/08/24 01:33:36;;;;;;;2.37;2.17;;;26.70;59.40;;;;;;6140554;23;20429;-73
2023/08/24 01:36:05;;;;;;;2.33;2.07;;;26.70;59.40;;;;;;6140752;23;20421;-73
2023/08/24 01:38:33;;;;;;;2.67;2.33;;;26.70;59.40;;;;;;6141385;23;20771;-73
2023/08/24 01:41:12;;;;;;;2.10;1.73;;;26.70;59.30;;;;;;6142467;23;20568;-73
2023/08/24 01:43:43;;;;;;;3.23;2.00;;;26.70;59.30;;;;;;6140969;23;20425;-73
2023/08/24 01:46:16;;;;;;;1.90;1.70;;;26.70;59.40;;;;;;6141642;23;20513;-73
2023/08/24 01:48:45;;;;;;;2.47;2.23;;;26.70;59.40;;;;;;6143495;23;20430;-73
2023/08/24 01:51:15;;;;;;;2.20;2.00;;;26.70;59.40;;;;;;6141588;23;20429;-73
2023/08/24 01:53:45;;;;;;;2.80;2.30;;;26.70;59.40;;;;;;6140954;23;20487;-73
2023/08/24 01:56:17;;;;;;;3.13;2.27;;;26.70;59.40;;;;;;6117426;23;20411;-73
2023/08/24 01:58:45;;;;;;;2.80;2.10;;;26.70;59.40;;;;;;6141266;23;20552;-73
2023/08/24 02:01:13;;;;;;;2.30;2.17;;;26.70;59.40;;;;;;6142798;23;20374;-73
2023/08/24 02:03:42;;;;;;;2.37;2.17;;;26.70;59.40;;;;;;6144424;23;20496;-73
2023/08/24 02:06:10;;;;;;;3.83;2.60;;;26.70;59.30;;;;;;6146699;23;20786;-73
2023/08/24 02:08:39;;;;;;;2.83;2.10;;;26.70;59.40;;;;;;6144529;23;20555;-73
2023/08/24 02:11:08;;;;;;;2.63;2.43;;;26.70;59.30;;;;;;6146248;23;20942;-73
2023/08/24 02:13:38;;;;;;;2.20;2.00;;;26.70;59.40;;;;;;6143648;23;20433;-74
2023/08/24 02:16:09;;;;;;;2.23;2.03;;;26.70;60.60;;;;;;6145513;23;20414;-73
2023/08/24 02:18:38;;;;;;;2.47;2.27;;;26.70;59.30;;;;;;6144086;23;20431;-72
2023/08/24 02:21:11;;;;;;;2.40;2.20;;;26.60;59.40;;;;;;6144409;23;20404;-73
2023/08/24 02:23:41;;;;;;;2.47;2.27;;;26.60;59.40;;;;;;6144115;23;20429;-73
2023/08/24 02:26:09;;;;;;;2.47;2.27;;;26.60;59.40;;;;;;6145503;23;20394;-73
2023/08/24 02:28:39;;;;;;;2.73;2.13;;;26.60;59.30;;;;;;6144427;23;20984;-73
2023/08/24 02:31:10;;;;;;;2.30;2.10;;;26.60;59.50;;;;;;6145042;23;20438;-73
2023/08/24 02:33:39;;;;;;;2.00;1.80;;;26.60;59.40;;;;;;6143761;23;20438;-73
2023/08/24 02:36:07;;;;;;;2.73;2.13;;;26.60;59.50;;;;;;6144429;23;20398;-73
2023/08/24 02:38:36;;;;;;;2.30;2.10;;;26.60;59.70;;;;;;6144311;23;20438;-74
2023/08/24 02:41:07;;;;;;;2.20;2.00;;;26.60;59.70;;;;;;6145281;23;20905;-73
2023/08/24 02:43:35;;;;;;;2.10;1.90;;;26.60;59.90;;;;;;6143044;23;20460;-73
2023/08/24 02:46:08;;;;;;;2.23;2.03;;;26.60;60.00;;;;;;6145250;23;20395;-73
2023/08/24 02:48:37;;;;;;;2.63;2.10;;;26.60;60.00;;;;;;6144145;23;20439;-73
2023/08/24 02:51:06;;;;;;;1.80;1.63;;;26.60;59.90;;;;;;6144222;23;20422;-74
2023/08/24 02:53:34;;;;;;;2.30;2.10;;;26.60;60.00;;;;;;6143865;23;20433;-73
2023/08/24 02:56:03;;;;;;;1.83;1.70;;;26.60;60.00;;;;;;6145418;23;20394;-73
2023/08/24 02:58:32;;;;;;;2.60;2.40;;;26.60;60.00;;;;;;6144086;23;20429;-73
2023/08/24 03:01:00;;;;;;;2.47;2.00;;;26.60;60.00;;;;;;6145556;23;20775;-73
2023/08/24 03:03:30;;;;;;;3.40;2.10;;;26.60;60.00;;;;;;6141058;23;20434;-73
2023/08/24 03:06:00;;;;;;;2.43;2.23;;;26.60;60.10;;;;;;6143616;23;20451;-74
2023/08/24 03:08:31;;;;;;;4.27;2.30;;;26.60;60.10;;;;;;6141704;23;20855;-73
2023/08/24 03:11:00;;;;;;;1.87;1.77;;;26.60;59.80;;;;;;6142061;23;20417;-72
2023/08/24 03:13:29;;;;;;;2.47;1.90;;;26.60;59.70;;;;;;6140023;23;20429;-74
2023/08/24 03:15:58;;;;;;;2.43;2.23;;;26.50;59.70;;;;;;6140336;23;20480;-73
2023/08/24 03:18:30;;;;;;;2.17;1.97;;;26.50;59.70;;;;;;6140335;23;20438;-74
2023/08/24 03:20:59;;;;;;;2.20;2.00;;;26.50;59.70;;;;;;6141417;23;20402;-73
2023/08/24 03:23:28;;;;;;;2.00;1.80;;;26.50;59.80;;;;;;6116547;23;20433;-73
2023/08/24 03:25:56;;;;;;;2.40;2.17;;;26.50;61.30;;;;;;6144046;23;20887;-73
2023/08/24 03:28:26;;;;;;;2.67;2.40;;;26.50;60.00;;;;;;6141840;23;20449;-73
2023/08/24 03:30:55;;;;;;;2.77;2.57;;;26.50;59.90;;;;;;6142654;23;20421;-74
2023/08/24 03:33:24;;;;;;;2.60;2.40;;;26.50;59.90;;;;;;6141861;23;20429;-73
2023/08/24 03:35:53;;;;;;;1.77;1.63;;;26.50;59.90;;;;;;6141642;23;20407;-73
2023/08/24 03:38:22;;;;;;;1.97;1.87;;;26.50;60.00;;;;;;6142237;23;20434;-73
2023/08/24 03:40:52;;;;;;;2.37;2.17;;;26.50;59.90;;;;;;6143086;23;20374;-73
2023/08/24 03:43:20;;;;;;;2.20;2.00;;;26.50;60.00;;;;;;6141395;23;20491;-73
2023/08/24 03:45:49;;;;;;;2.10;1.73;;;26.50;59.90;;;;;;6142113;23;20392;-73
2023/08/24 03:48:18;;;;;;;2.30;2.10;;;26.50;60.00;;;;;;6141538;23;20433;-72
2023/08/24 03:50:47;;;;;;;2.60;2.40;;;26.50;60.00;;;;;;6142542;23;20414;-74
2023/08/24 03:53:18;;;;;;;2.43;2.23;;;26.50;60.00;;;;;;6141557;23;20433;-72
2023/08/24 03:55:49;;;;;;;2.57;2.37;;;26.40;59.80;;;;;;6143482;23;20439;-73
2023/08/24 03:58:19;;;;;;;3.23;2.30;;;26.50;60.00;;;;;;6142394;23;20437;-73
2023/08/24 04:00:48;;;;;;;2.23;2.03;;;26.50;60.00;;;;;;6142763;23;20398;-74
2023/08/24 04:03:16;;;;;;;2.63;2.00;;;26.40;60.00;;;;;;6142302;23;20433;-74
2023/08/24 04:05:45;;;;;;;2.20;2.00;;;26.40;60.00;;;;;;6142350;23;20378;-73
2023/08/24 04:08:13;;;;;;;3.43;2.50;;;26.40;60.00;;;;;;6142294;23;20946;-73
2023/08/24 04:10:43;;;;;;;2.90;2.07;;;26.40;60.10;;;;;;6143242;23;20418;-73
2023/08/24 04:13:11;;;;;;;3.10;2.13;;;26.40;60.00;;;;;;6141454;23;20437;-74
2023/08/24 04:15:40;;;;;;;3.50;2.30;;;26.40;60.00;;;;;;6142254;23;20894;-73
2023/08/24 04:18:08;;;;;;;2.33;2.13;;;26.40;60.00;;;;;;6142674;23;20482;-73
2023/08/24 04:20:37;;;;;;;2.70;2.30;;;26.40;60.10;;;;;;6137895;23;20698;-73
2023/08/24 04:23:05;;;;;;;3.00;2.43;;;26.40;60.10;;;;;;6141578;23;20441;-73
2023/08/24 04:25:35;;;;;;;2.37;2.00;;;26.40;60.10;;;;;;6143219;23;20796;-73
2023/08/24 04:28:05;;;;;;;2.30;2.10;;;26.40;60.30;;;;;;6142334;23;20911;-74
2023/08/24 04:30:34;;;;;;;8.30;2.50;;;26.40;60.20;;;;;;6141822;23;20390;-74
2023/08/24 04:33:04;;;;;;;2.60;2.40;;;26.40;60.50;;;;;;6140590;23;20490;-74
2023/08/24 04:35:35;;;;;;;3.10;2.03;;;26.40;60.50;;;;;;6142161;23;20405;-73
2023/08/24 04:38:04;;;;;;;2.63;2.43;;;26.30;60.50;;;;;;6142697;23;20425;-74
2023/08/24 04:40:49;;;;;;;3.20;2.50;;;26.30;60.40;;;;;;6143260;23;20389;-73
2023/08/24 04:43:20;;;;;;;3.13;2.43;;;26.30;60.40;;;;;;6140648;23;20603;-73
2023/08/24 04:45:52;;;;;;;3.20;2.20;;;26.30;60.40;;;;;;6142976;23;20448;-73
2023/08/24 04:48:20;;;;;;;2.90;2.10;;;26.20;60.30;;;;;;6141939;23;20437;-74
2023/08/24 04:50:49;;;;;;;3.80;2.90;;;26.20;60.60;;;;;;6142747;23;20808;-74
2023/08/24 04:53:19;;;;;;;3.47;2.67;;;26.20;60.80;;;;;;6141417;23;20437;-74
2023/08/24 04:55:47;;;;;;;2.60;2.37;;;26.20;60.80;;;;;;6144594;23;20390;-73
2023/08/24 04:58:17;;;;;;;3.80;2.67;;;26.20;61.10;;;;;;6141551;23;20492;-74
2023/08/24 05:00:46;;;;;;;3.57;2.93;;;26.10;60.70;;;;;;6142918;23;20459;-74
2023/08/24 05:03:14;;;;;;;3.07;2.87;;;26.10;60.60;;;;;;6141447;23;20426;-73
2023/08/24 05:05:42;;;;;;;2.50;2.30;;;26.10;60.80;;;;;;6142347;23;20413;-74
2023/08/24 05:08:11;;;;;;;3.17;2.80;;;26.10;60.90;;;;;;6142436;23;20472;-74
2023/08/24 05:10:40;;;;;;;3.50;2.53;;;26.10;61.00;;;;;;6142067;23;20386;-73
2023/08/24 05:13:09;;;;;;;2.93;2.37;;;26.10;61.10;;;;;;6142353;23;20421;-74
2023/08/24 05:15:39;;;;;;;2.80;2.33;;;26.10;61.80;;;;;;6142703;23;20374;-73
2023/08/24 05:18:07;;;;;;;2.63;2.30;;;26.00;61.30;;;;;;6142544;23;20414;-73
2023/08/24 05:20:36;;;;;;;3.27;2.57;;;26.00;61.20;;;;;;6142458;23;20932;-74
2023/08/24 05:23:04;;;;;;;3.00;2.70;;;26.00;61.30;;;;;;6138281;23;20382;-73
2023/08/24 05:25:34;;;;;;;2.43;2.23;;;26.10;61.20;;;;;;6142476;23;20435;-74
2023/08/24 05:28:03;;;;;;;4.33;2.50;;;26.10;61.20;;;;;;6141589;23;20452;-74
2023/08/24 05:30:31;;;;;;;2.50;2.17;;;26.10;61.30;;;;;;6142600;23;20431;-74
2023/08/24 05:33:01;;;;;;;2.20;2.00;;;26.10;61.30;;;;;;6141511;23;20422;-74
2023/08/24 05:35:29;;;;;;;2.40;2.20;;;26.10;61.30;;;;;;6141343;23;20401;-74
2023/08/24 05:37:58;;;;;;;2.70;1.90;;;26.10;61.30;;;;;;6142913;23;20448;-74
2023/08/24 05:40:26;;;;;;;2.40;2.20;;;26.10;61.20;;;;;;6142973;23;20378;-74
2023/08/24 05:42:54;;;;;;;2.67;2.40;;;26.10;61.10;;;;;;6141208;23;20430;-74
2023/08/24 05:45:23;;;;;;;1.87;1.77;;;26.10;62.40;;;;;;6140995;23;20851;-74
2023/08/24 05:47:54;;;;;;;2.80;2.20;;;26.10;61.10;;;;;;6142520;23;20428;-74
2023/08/24 05:50:24;;;;;;;2.67;2.10;;;26.10;61.20;;;;;;6116783;23;20409;-74
2023/08/24 05:52:52;;;;;;;2.50;2.30;;;26.10;61.10;;;;;;6140551;23;20923;-73
2023/08/24 05:55:21;;;;;;;2.97;2.70;;;26.10;61.20;;;;;;6142465;23;20916;-74
2023/08/24 05:57:49;;;;;;;2.23;2.03;;;26.10;62.50;;;;;;6142258;23;20960;-73
2023/08/24 06:00:18;;;;;;;3.00;2.20;;;26.10;61.20;;;;;;6141781;23;20787;-74
2023/08/24 06:02:47;;;;;;;3.20;2.53;;;26.10;61.40;;;;;;6141032;23;20521;-74
2023/08/24 06:05:17;;;;;;;2.83;2.53;;;26.10;61.40;;;;;;6141266;23;20397;-74
2023/08/24 06:07:47;;;;;;;3.00;2.70;;;26.10;61.30;;;;;;6142881;23;20420;-74
2023/08/24 06:10:16;;;;;;;2.90;2.70;;;26.10;61.50;;;;;;6143693;23;20465;-74
2023/08/24 06:12:44;;;;;;;2.57;2.20;;;26.10;61.60;;;;;;6141256;23;20509;-73
2023/08/24 06:15:13;;;;;;;2.33;2.13;;;26.10;61.50;;;;;;6141839;23;20436;-74
2023/08/24 06:17:42;;;;;;;3.20;2.50;;;26.10;61.60;;;;;;6142098;23;20421;-72
2023/08/24 06:20:12;;;;;;;2.90;2.30;;;26.10;61.60;;;;;;6141614;23;20485;-74
2023/08/24 06:22:40;;;;;;;2.60;2.33;;;26.10;61.60;;;;;;6141186;23;20460;-74
2023/08/24 06:25:10;;;;;;;3.20;2.10;;;26.10;61.70;;;;;;6143082;23;20408;-74
2023/08/24 06:27:39;;;;;;;2.83;2.20;;;26.10;61.80;;;;;;6141882;23;20974;-74
2023/08/24 06:30:08;;;;;;;2.27;2.07;;;26.00;61.90;;;;;;6141325;23;20397;-74
2023/08/24 06:32:36;;;;;;;3.67;2.33;;;26.00;61.90;;;;;;6141023;23;20445;-74
2023/08/24 06:35:06;;;;;;;3.17;2.87;;;26.00;61.90;;;;;;6141321;23;20720;-73
2023/08/24 06:37:35;;;;;;;2.83;2.50;;;26.00;62.10;;;;;;6142395;23;20427;-73
2023/08/24 06:40:05;;;;;;;2.97;2.47;;;26.00;62.20;;;;;;6142291;23;20589;-73
2023/08/24 06:42:34;;;;;;;3.00;2.80;;;26.00;62.30;;;;;;6140810;23;20505;-73
2023/08/24 06:45:03;;;;;;;2.40;2.20;;;26.00;62.30;;;;;;6140015;23;20390;-73
2023/08/24 06:47:31;;;;;;;3.27;3.00;;;25.90;62.40;;;;;;6141667;23;20926;-73
2023/08/24 06:50:00;;;;;;;2.67;2.47;;;26.00;62.70;;;;;;6141058;23;20455;-73
2023/08/24 06:52:28;;;;;;;3.07;2.70;;;25.90;62.60;;;;;;6141245;23;20421;-74
2023/08/24 06:54:56;;;;;;;2.83;2.63;;;26.00;62.80;;;;;;6141795;23;20397;-73
2023/08/24 06:57:25;;;;;;;3.60;2.37;;;26.00;62.80;;;;;;6143075;23;20421;-72
2023/08/24 06:59:54;;;;;;;3.53;2.40;;;26.00;62.70;;;;;;6142773;23;20397;-73
2023/08/24 07:02:23;;;;;;;3.40;3.10;;;26.00;62.80;;;;;;6142337;23;20437;-73
2023/08/24 07:04:51;;;;;;;3.20;2.20;;;26.00;62.80;;;;;;6141944;23;20397;-74
2023/08/24 07:07:20;;;;;;;2.20;2.00;;;26.00;62.90;;;;;;6143377;23;20436;-74
2023/08/24 07:09:48;;;;;;;5.90;3.00;;;26.00;62.80;;;;;;6141929;23;20393;-74
2023/08/24 07:12:16;;;;;;;2.97;2.07;;;26.00;63.20;;;;;;6142182;23;20228;-73
2023/08/24 07:14:45;;;;;;;2.67;2.47;;;26.00;62.80;;;;;;6142213;23;20397;-73
2023/08/24 07:17:15;;;;;;;2.93;2.33;;;26.00;62.80;;;;;;6142631;23;20410;-74
2023/08/24 07:19:44;;;;;;;2.60;2.30;;;26.00;62.60;;;;;;6141707;23;20782;-73
2023/08/24 07:22:12;;;;;;;2.30;2.10;;;26.00;62.60;;;;;;6142653;23;20443;-73
2023/08/24 07:24:41;;;;;;;2.90;2.20;;;26.00;62.50;;;;;;6142675;23;20398;-74
2023/08/24 07:27:13;;;;;;;2.57;1.93;;;26.00;62.50;;;;;;6141595;23;20412;-74
2023/08/24 07:29:42;;;;;;;2.20;2.00;;;26.00;62.40;;;;;;6142059;23;20385;-73
2023/08/24 07:32:10;;;;;;;3.83;2.00;;;26.00;62.40;;;;;;6141777;23;20390;-73
2023/08/24 07:34:40;;;;;;;3.07;2.00;;;26.00;62.40;;;;;;6142096;23;20895;-74
2023/08/24 07:37:09;;;;;;;2.40;2.20;;;26.00;62.40;;;;;;6141634;23;20491;-73
2023/08/24 07:39:39;;;;;;;3.30;2.20;;;26.00;62.40;;;;;;6143480;23;20401;-73
2023/08/24 07:42:08;;;;;;;2.07;1.87;;;26.10;62.50;;;;;;6143141;23;20382;-74
2023/08/24 07:44:36;;;;;;;2.80;2.60;;;26.10;62.40;;;;;;6141216;23;20397;-73
2023/08/24 07:47:05;;;;;;;2.23;2.03;;;26.10;62.40;;;;;;6143201;23;20428;-73
2023/08/24 07:49:33;;;;;;;2.40;2.10;;;26.10;63.60;;;;;;6143311;23;20797;-72
2023/08/24 07:52:03;;;;;;;2.50;2.10;;;26.10;62.30;;;;;;6141543;23;20382;-73
2023/08/24 07:54:32;;;;;;;2.80;2.20;;;26.10;62.40;;;;;;6111874;23;20757;-73
2023/08/24 07:57:00;;;;;;;3.93;1.90;;;26.10;62.40;;;;;;6112988;23;20415;-73
2023/08/24 07:59:28;;;;;;;2.30;2.10;;;26.10;62.30;;;;;;6112161;22;20491;-73
2023/08/24 08:01:57;;;;;;;2.37;2.17;;;26.10;62.40;;;;;;6114063;23;20433;-73
2023/08/24 08:04:25;;;;;;;2.27;2.07;;;26.10;62.30;;;;;;6111539;23;20513;-74
2023/08/24 08:06:53;;;;;;;2.40;2.10;;;26.10;62.40;;;;;;6112039;23;20399;-73
2023/08/24 08:09:23;;;;;;;2.40;2.20;;;26.10;62.40;;;;;;6112555;22;20434;-73
2023/08/24 08:11:51;;;;;;;2.30;2.10;;;26.10;62.40;;;;;;6113691;23;20383;-74
2023/08/24 08:14:21;;;;;;;2.73;2.37;;;26.10;62.40;;;;;;6111444;23;20457;-73
2023/08/24 08:16:49;;;;;;;2.13;1.93;;;26.10;62.30;;;;;;6113660;23;20842;-73
2023/08/24 08:19:19;;;;;;;2.13;1.93;;;26.10;62.40;;;;;;6113683;22;20434;-74
2023/08/24 08:21:47;;;;;;;3.17;2.27;;;26.10;62.30;;;;;;6111649;23;20900;-73
2023/08/24 08:24:16;;;;;;;2.30;2.10;;;26.10;62.40;;;;;;6087265;23;20874;-72
2023/08/24 08:26:55;;;;;;;1.97;1.73;;;26.10;62.30;;;;;;6113571;23;20980;-73
2023/08/24 08:29:23;;;;;;;2.23;2.03;;;26.10;62.30;;;;;;6111971;23;20940;-73
2023/08/24 08:31:51;;;;;;;2.17;1.93;;;26.10;62.30;;;;;;6115385;23;20426;-72
2023/08/24 08:34:20;;;;;;;2.60;2.10;;;26.10;62.30;;;;;;6110829;22;20995;-74
2023/08/24 08:36:49;;;;;;;2.27;2.07;;;26.10;62.30;;;;;;6112248;23;20919;-73
2023/08/24 08:39:17;;;;;;;2.10;1.90;;;26.10;62.30;;;;;;6112658;23;20484;-74
2023/08/24 08:41:47;;;;;;;2.40;2.20;;;26.10;62.30;;;;;;6113234;23;20375;-73
2023/08/24 08:44:17;;;;;;;2.80;2.60;;;26.10;62.30;;;;;;6111361;22;20480;-74
2023/08/24 08:46:46;;;;;;;2.80;2.60;;;26.10;62.30;;;;;;6112952;23;20422;-74
2023/08/24 08:49:16;;;;;;;3.20;2.90;;;26.10;62.40;;;;;;6111865;23;20431;-72
2023/08/24 08:51:45;;;;;;;3.40;2.50;;;26.10;62.20;;;;;;6112157;23;20713;-73
2023/08/24 08:54:13;;;;;;;2.43;2.23;;;26.10;62.30;;;;;;6111273;23;20520;-73
2023/08/24 08:56:42;;;;;;;2.23;2.03;;;26.10;62.20;;;;;;6112739;23;20538;-73
2023/08/24 08:59:14;;;;;;;2.50;2.30;;;26.10;62.30;;;;;;6111507;22;20438;-72
2023/08/24 09:01:45;;;;;;;2.50;2.30;;;26.10;62.20;;;;;;6113053;23;20375;-73
2023/08/24 09:04:13;;;;;;;2.40;2.20;;;26.10;62.10;;;;;;6112234;23;20492;-73
2023/08/24 09:06:42;;;;;;;2.30;2.10;;;26.10;62.20;;;;;;6112533;23;20896;-74
2023/08/24 09:09:11;;;;;;;2.20;1.90;;;26.10;62.20;;;;;;6112864;23;20871;-72
2023/08/24 09:11:42;;;;;;;2.50;2.30;;;26.10;62.10;;;;;;6112928;23;20444;-73
2023/08/24 09:14:10;;;;;;;2.10;1.90;;;26.10;62.10;;;;;;6111864;23;20442;-73
2023/08/24 09:16:38;;;;;;;2.37;2.17;;;26.10;62.00;;;;;;6113219;23;20402;-73
2023/08/24 09:19:12;;;;;;;2.73;2.23;;;26.10;62.10;;;;;;6136872;23;20443;-73
2023/08/24 09:21:41;;;;;;;3.37;2.13;;;26.10;62.00;;;;;;6143810;23;20386;-73
2023/08/24 09:24:12;;;;;;;2.10;1.90;;;26.10;62.00;;;;;;6141057;23;20465;-73
2023/08/24 09:26:42;;;;;;;2.70;2.50;;;26.10;62.00;;;;;;6142065;23;20448;-73
2023/08/24 09:29:15;;;;;;;3.00;2.50;;;26.10;61.90;;;;;;6141142;23;20473;-74
2023/08/24 09:31:44;;;;;;;3.30;2.63;;;26.10;61.90;;;;;;6142429;23;20443;-73
2023/08/24 09:34:14;;;;;;;3.17;2.50;;;26.10;62.00;;;;;;6142316;23;21033;-73
2023/08/24 09:36:43;;;;;;;4.10;1.97;;;26.10;63.10;;;;;;6141506;23;20739;-73
2023/08/24 09:39:19;;;;;;;2.43;2.23;;;26.10;61.90;;;;;;6142998;23;20433;-73
2023/08/24 09:41:50;;;;;;;3.87;2.63;;;26.10;61.90;;;;;;6142411;23;20385;-72
2023/08/24 09:44:19;;;;;;;2.57;2.37;;;26.10;61.70;;;;;;6139997;23;20942;-72
2023/08/24 09:46:47;;;;;;;2.40;2.20;;;26.10;61.80;;;;;;6142882;23;20414;-73
2023/08/24 09:49:17;;;;;;;2.90;2.33;;;26.10;61.80;;;;;;6141481;23;20468;-73
2023/08/24 09:51:46;;;;;;;2.30;2.10;;;26.10;61.80;;;;;;6116479;23;20886;-73
2023/08/24 09:54:18;;;;;;;3.33;2.93;;;26.00;61.80;;;;;;6139902;23;20962;-73
2023/08/24 09:56:51;;;;;;;2.73;2.40;;;26.10;61.90;;;;;;6141806;23;20482;-73
2023/08/24 09:59:24;;;;;;;2.97;2.40;;;26.00;61.80;;;;;;6140211;23;20433;-73
2023/08/24 10:01:55;;;;;;;2.23;2.03;;;26.10;61.70;;;;;;6141824;23;20390;-73
2023/08/24 10:04:26;;;;;;;3.33;2.83;;;26.00;61.80;;;;;;6140268;23;20437;-73
2023/08/24 10:07:14;;;;;;;2.87;2.03;;;26.00;61.80;;;;;;6141387;23;20475;-73
2023/08/24 10:09:49;;;;;;;2.60;2.33;;;26.00;61.70;;;;;;6112986;23;20399;-73
2023/08/24 10:12:21;;;;;;;2.40;2.07;;;26.00;61.70;;;;;;6112703;23;20894;-72
2023/08/24 10:14:55;;;;;;;2.30;2.10;;;26.00;61.70;;;;;;6112325;23;20425;-72
2023/08/24 10:17:24;;;;;;;3.50;1.93;;;26.00;61.70;;;;;;6112592;22;20425;-73
2023/08/24 10:19:56;;;;;;;2.40;2.20;;;26.00;61.70;;;;;;6112400;23;20650;-72
2023/08/24 10:22:25;;;;;;;2.40;2.20;;;26.10;61.80;;;;;;6112644;23;20910;-73
2023/08/24 10:24:54;;;;;;;2.33;1.80;;;26.00;61.80;;;;;;6112544;23;20426;-73
2023/08/24 10:27:24;;;;;;;2.33;2.13;;;26.00;61.90;;;;;;6112196;23;20460;-73
2023/08/24 10:29:52;;;;;;;2.77;2.27;;;26.00;61.80;;;;;;6111533;23;20406;-73
2023/08/24 10:32:23;;;;;;;2.37;2.17;;;26.00;61.90;;;;;;6112632;23;20422;-71
2023/08/24 10:34:53;;;;;;;2.20;2.00;;;26.00;61.90;;;;;;6111954;23;20414;-73
2023/08/24 10:37:26;;;;;;;2.67;2.43;;;26.00;61.80;;;;;;6111971;23;20415;-73
2023/08/24 10:39:55;;;;;;;2.47;2.27;;;26.00;61.80;;;;;;6112725;23;20395;-71
2023/08/24 10:42:25;;;;;;;2.87;2.23;;;26.00;61.90;;;;;;6111759;23;20395;-73
2023/08/24 10:44:54;;;;;;;3.33;2.40;;;26.00;61.90;;;;;;6112111;23;20382;-73
2023/08/24 10:47:23;;;;;;;3.50;2.37;;;26.00;61.80;;;;;;6114723;23;20417;-73
2023/08/24 10:50:00;;;;;;;3.00;2.70;;;26.00;61.80;;;;;;6141107;23;20721;-73
2023/08/24 10:52:34;;;;;;;2.67;2.33;;;26.00;61.90;;;;;;6141806;23;20708;-73
2023/08/24 10:55:03;;;;;;;2.43;2.07;;;26.00;61.90;;;;;;6141574;23;20416;-73
2023/08/24 10:57:41;;;;;;;3.60;2.00;;;26.00;61.90;;;;;;6141151;23;20423;-73
2023/08/24 11:00:14;;;;;;;3.30;2.30;;;26.00;61.80;;;;;;6140727;23;20378;-73
2023/08/24 11:02:43;;;;;;;2.97;2.30;;;26.00;61.90;;;;;;6140198;23;20444;-73
2023/08/24 11:05:22;;;;;;;2.40;2.20;;;26.00;62.00;;;;;;6139884;23;20401;-73
2023/08/24 11:07:52;;;;;;;2.70;2.50;;;26.00;61.90;;;;;;6141613;23;20455;-74
2023/08/24 11:10:21;;;;;;;2.63;2.43;;;26.00;62.00;;;;;;6140990;23;20396;-74
2023/08/24 11:13:09;;;;;;;3.00;2.80;;;26.00;62.00;;;;;;6140086;23;20429;-74
2023/08/24 11:15:45;;;;;;;2.70;2.50;;;26.00;62.10;;;;;;6116288;23;20479;-73
2023/08/24 11:18:31;;;;;;;2.50;2.30;;;26.00;62.10;;;;;;6141888;23;20746;-74
2023/08/24 11:21:06;;;;;;;3.23;2.93;;;26.00;62.10;;;;;;6141140;23;20859;-74
2023/08/24 11:23:36;;;;;;;2.43;2.10;;;26.00;62.10;;;;;;6139596;23;20441;-74
2023/08/24 11:26:04;;;;;;;2.93;2.03;;;26.00;62.20;;;;;;6141650;23;20427;-73
2023/08/24 11:28:33;;;;;;;3.13;2.40;;;26.00;62.30;;;;;;6140703;23;20945;-73
2023/08/24 11:31:01;;;;;;;2.40;2.20;;;26.00;62.30;;;;;;6141534;23;20394;-73
2023/08/24 11:33:31;;;;;;;2.67;2.30;;;26.00;62.40;;;;;;6139644;23;20911;-73
2023/08/24 11:36:01;;;;;;;3.03;2.67;;;26.00;62.40;;;;;;6140524;23;20461;-73
2023/08/24 11:38:41;;;;;;;3.67;2.30;;;26.00;62.50;;;;;;6142644;23;20915;-74
2023/08/24 11:41:14;;;;;;;2.40;2.20;;;26.00;62.60;;;;;;6141497;23;20863;-72
2023/08/24 11:43:43;;;;;;;2.93;2.20;;;26.00;62.70;;;;;;6142019;23;20470;-73
2023/08/24 11:46:11;;;;;;;3.07;2.77;;;26.00;62.70;;;;;;6142624;23;20381;-73
2023/08/24 11:48:40;;;;;;;2.40;2.20;;;26.00;63.70;;;;;;6143829;23;20834;-73
2023/08/24 11:51:10;;;;;;;3.10;2.80;;;26.00;65.00;;;;;;6142300;23;20424;-73
2023/08/24 11:53:40;;;;;;;2.70;2.50;;;26.00;64.10;;;;;;6141931;23;20915;-72
2023/08/24 11:56:10;;;;;;;4.13;2.40;;;26.00;64.00;;;;;;6143071;23;20467;-73
2023/08/24 11:58:39;;;;;;;4.77;2.50;;;25.90;64.20;;;;;;6142116;23;20445;-73
2023/08/24 12:01:09;;;;;;;2.87;2.57;;;25.90;64.20;;;;;;6142344;23;20402;-73
2023/08/24 12:03:39;;;;;;;4.27;2.87;;;25.90;64.60;;;;;;6141637;23;20437;-72
2023/08/24 12:06:12;;;;;;;3.50;2.83;;;25.90;64.90;;;;;;6141911;23;20420;-73
2023/08/24 12:08:43;;;;;;;4.27;2.47;;;25.90;65.10;;;;;;6142614;23;20954;-73
2023/08/24 12:11:15;;;;;;;2.67;2.47;;;25.90;65.10;;;;;;6142694;23;20444;-74
2023/08/24 12:13:49;;;;;;;2.50;2.30;;;25.90;65.40;;;;;;6141141;23;20484;-74
2023/08/24 12:16:18;;;;;;;3.83;2.73;;;25.90;65.50;;;;;;6141646;23;20907;-72
2023/08/24 12:18:53;;;;;;;5.40;2.33;;;25.90;65.60;;;;;;6141906;23;20429;-74
2023/08/24 12:21:22;;;;;;;5.37;3.20;;;25.90;65.70;;;;;;6143092;23;20382;-74
2023/08/24 12:23:59;;;;;;;3.33;2.80;;;25.90;66.60;;;;;;6141420;23;20852;-74
2023/08/24 12:26:29;;;;;;;2.93;2.60;;;25.90;66.90;;;;;;6143086;23;20386;-74
2023/08/24 12:29:03;;;;;;;4.40;3.10;;;25.90;66.70;;;;;;6141515;23;20444;-74
2023/08/24 12:31:31;;;;;;;2.40;2.10;;;25.90;66.70;;;;;;6142815;23;20388;-74
2023/08/24 12:34:02;;;;;;;3.70;2.57;;;25.90;66.70;;;;;;6141393;23;20453;-74
2023/08/24 12:36:30;;;;;;;2.97;2.50;;;25.90;67.10;;;;;;6141129;23;20841;-74
2023/08/24 12:39:00;;;;;;;3.93;2.73;;;25.80;66.30;;;;;;6142174;23;20425;-74
2023/08/24 12:41:29;;;;;;;5.17;3.40;;;25.90;66.80;;;;;;6142620;23;20431;-75
2023/08/24 12:43:57;;;;;;;4.97;3.17;;;25.90;67.10;;;;;;6140386;23;21041;-74
2023/08/24 12:46:27;;;;;;;4.20;2.67;;;25.90;67.20;;;;;;6144144;23;20570;-74
2023/08/24 12:48:56;;;;;;;6.80;2.70;;;25.90;67.10;;;;;;6141823;23;20438;-73
2023/08/24 12:51:25;;;;;;;2.50;2.30;;;25.90;67.20;;;;;;6141919;23;20390;-69
2023/08/24 12:53:53;;;;;;;3.63;2.80;;;25.80;66.70;;;;;;6116116;23;20433;-67
2023/08/24 12:56:23;;;;;;;3.00;2.27;;;25.90;67.10;;;;;;6141939;23;20437;-68
2023/08/24 12:58:51;;;;;;;3.63;2.77;;;25.80;66.50;;;;;;6141872;23;20434;-67
2023/08/24 13:01:19;;;;;;;2.70;2.40;;;25.80;66.30;;;;;;6141186;23;20459;-69